Time;durP1;ratioP1;P1;durP2;ratioP2;P2;SDS_P1;SDS_P2;PMS_P1;PMS_P2;Temp;Humidity;BMP_temperature;BMP_pressure;BME280_temperature;BME280_humidity;BME280_pressure;Samples;Min_cycle;Max_cycle;Signal;HPM_P1;HPM_P2
2022/09/01 00:00:47;;;;;;;24.70;17.40;;;21.60;99.90;;;;;;5035406;28;20044;-82
2022/09/01 00:03:18;;;;;;;23.67;17.58;;;21.50;99.90;;;;;;5035354;28;20028;-81
2022/09/01 00:05:45;;;;;;;23.38;17.85;;;21.50;99.90;;;;;;5035011;28;20060;-80
2022/09/01 00:08:12;;;;;;;25.67;18.50;;;21.50;99.90;;;;;;5053342;28;20020;-80
2022/09/01 00:10:38;;;;;;;26.45;17.25;;;21.40;99.90;;;;;;5052736;28;20040;-82
2022/09/01 00:13:06;;;;;;;23.65;16.90;;;21.50;99.90;;;;;;5052794;28;20067;-83
2022/09/01 00:15:33;;;;;;;24.73;17.00;;;21.50;99.90;;;;;;5052601;28;20648;-81
2022/09/01 00:17:59;;;;;;;26.15;16.20;;;21.50;99.90;;;;;;5052775;28;20104;-82
2022/09/01 00:20:25;;;;;;;27.08;15.60;;;21.50;99.90;;;;;;5052822;28;20127;-82
2022/09/01 00:22:51;;;;;;;21.23;15.70;;;21.50;99.90;;;;;;5051108;28;20043;-81
2022/09/01 00:25:18;;;;;;;24.45;15.10;;;21.40;99.90;;;;;;5053014;28;20099;-80
2022/09/01 00:27:45;;;;;;;23.98;15.43;;;21.50;99.90;;;;;;5035022;28;20116;-80
2022/09/01 00:30:11;;;;;;;24.05;15.75;;;21.50;99.90;;;;;;5053098;28;20039;-81
2022/09/01 00:32:37;;;;;;;19.55;14.50;;;21.50;99.90;;;;;;5052762;28;20451;-81
2022/09/01 00:35:04;;;;;;;20.27;14.52;;;21.60;99.90;;;;;;5052612;28;20040;-81
2022/09/01 00:37:30;;;;;;;23.15;14.48;;;21.60;99.90;;;;;;5053004;28;20045;-80
2022/09/01 00:39:56;;;;;;;23.65;15.20;;;21.60;99.90;;;;;;5056411;28;20029;-81
2022/09/01 00:42:22;;;;;;;25.52;14.68;;;21.60;99.90;;;;;;5057105;28;20040;-81
2022/09/01 00:44:48;;;;;;;26.85;13.68;;;21.60;99.90;;;;;;5057000;28;20028;-81
2022/09/01 00:47:14;;;;;;;23.38;14.70;;;21.60;99.90;;;;;;5056691;28;20033;-81
2022/09/01 00:49:48;;;;;;;22.65;14.40;;;21.60;99.90;;;;;;5056740;28;20025;-81
2022/09/01 00:52:23;;;;;;;24.33;14.45;;;21.60;99.90;;;;;;5056560;28;20027;-82
2022/09/01 00:54:57;;;;;;;20.60;14.05;;;21.60;99.90;;;;;;5056162;28;20534;-80
2022/09/01 00:57:23;;;;;;;19.80;13.45;;;21.60;99.90;;;;;;5056677;28;20076;-81
2022/09/01 00:59:55;;;;;;;23.23;14.07;;;21.60;99.90;;;;;;5056705;28;20021;-79
2022/09/01 01:02:21;;;;;;;20.23;12.98;;;21.60;99.90;;;;;;5055926;28;20035;-82
2022/09/01 01:04:47;;;;;;;22.40;14.15;;;21.60;99.90;;;;;;5038455;28;20471;-81
2022/09/01 01:07:15;;;;;;;19.73;13.48;;;21.50;99.90;;;;;;5038286;28;20035;-83
2022/09/01 01:09:44;;;;;;;19.92;12.80;;;21.50;99.90;;;;;;5038491;28;20021;-81
2022/09/01 01:12:12;;;;;;;26.17;13.07;;;21.50;99.90;;;;;;5056129;28;20031;-80
2022/09/01 01:14:40;;;;;;;22.08;13.68;;;21.50;99.90;;;;;;5038169;28;20380;-83
2022/09/01 01:17:06;;;;;;;19.70;13.20;;;21.50;99.90;;;;;;5056143;28;20036;-82
2022/09/01 01:23:04;;;;;;;21.05;12.73;;;21.50;99.90;;;;;;5055659;28;20044;-81
2022/09/01 01:25:42;;;;;;;20.00;13.52;;;21.50;99.90;;;;;;5055676;28;20017;-80
2022/09/01 01:28:14;;;;;;;20.45;13.35;;;21.50;99.90;;;;;;5055634;28;20021;-80
2022/09/01 01:30:43;;;;;;;21.95;12.60;;;21.40;99.90;;;;;;5056026;28;20410;-82
2022/09/01 01:33:10;;;;;;;19.95;12.90;;;21.40;99.90;;;;;;5056220;28;20032;-80
2022/09/01 01:35:36;;;;;;;22.83;14.45;;;21.40;99.90;;;;;;5055489;28;20044;-80
2022/09/01 01:38:06;;;;;;;17.45;13.35;;;21.40;99.90;;;;;;5055860;28;20057;-81
2022/09/01 01:40:32;;;;;;;21.83;13.25;;;21.40;99.90;;;;;;5037768;28;20029;-80
2022/09/01 01:42:59;;;;;;;25.58;12.55;;;21.40;99.90;;;;;;5037583;28;20083;-80
2022/09/01 01:45:25;;;;;;;22.02;11.93;;;21.40;99.90;;;;;;5055663;28;20025;-82
2022/09/01 01:47:53;;;;;;;22.60;14.32;;;21.40;99.90;;;;;;5037394;28;20036;-83
2022/09/01 01:50:34;;;;;;;22.67;13.27;;;21.30;99.90;;;;;;5037323;28;20024;-81
2022/09/01 01:53:02;;;;;;;21.70;14.88;;;21.30;99.90;;;;;;5055319;28;20037;-81
2022/09/01 01:55:29;;;;;;;18.90;13.15;;;21.30;99.90;;;;;;5054644;28;20037;-81
2022/09/01 01:57:57;;;;;;;25.60;13.57;;;21.20;99.90;;;;;;5054716;28;20031;-82
2022/09/01 02:00:29;;;;;;;18.92;12.73;;;21.20;99.90;;;;;;5055059;28;20090;-81
2022/09/01 02:02:55;;;;;;;20.80;12.57;;;21.20;99.90;;;;;;5055158;28;20037;-82
2022/09/01 02:05:30;;;;;;;17.42;11.98;;;21.20;99.90;;;;;;5037337;28;20029;-82
2022/09/01 02:08:05;;;;;;;18.02;11.57;;;21.10;99.90;;;;;;5055273;28;20146;-81
2022/09/01 02:10:41;;;;;;;22.13;12.38;;;21.00;99.90;;;;;;5055451;28;20029;-81
2022/09/01 02:13:10;;;;;;;15.70;11.25;;;21.10;99.90;;;;;;5055003;28;20025;-80
2022/09/01 02:15:44;;;;;;;16.02;11.90;;;21.10;99.90;;;;;;5037243;28;20040;-80
2022/09/01 02:18:23;;;;;;;16.27;11.38;;;21.10;99.90;;;;;;5036422;28;20460;-81
2022/09/01 02:20:50;;;;;;;18.83;12.13;;;21.10;99.90;;;;;;5054581;28;20028;-80
2022/09/01 02:23:22;;;;;;;23.42;12.02;;;21.10;99.90;;;;;;5054497;28;20116;-81
2022/09/01 02:25:49;;;;;;;15.98;12.48;;;21.10;99.90;;;;;;5036993;28;20032;-81
2022/09/01 02:28:18;;;;;;;20.15;13.27;;;21.10;99.90;;;;;;5054064;28;20356;-81
2022/09/01 02:30:48;;;;;;;18.75;13.20;;;21.10;99.90;;;;;;5052364;28;20027;-80
2022/09/01 02:33:17;;;;;;;21.48;12.57;;;21.10;99.90;;;;;;5052671;28;20162;-83
2022/09/01 02:35:56;;;;;;;19.83;12.52;;;21.00;99.90;;;;;;5052774;28;20032;-81
2022/09/01 02:38:24;;;;;;;18.30;12.65;;;21.10;99.90;;;;;;5052151;28;20451;-81
2022/09/01 02:40:52;;;;;;;17.52;11.05;;;21.00;99.90;;;;;;5052687;28;20482;-80
2022/09/01 02:43:19;;;;;;;21.27;12.82;;;21.00;99.90;;;;;;5052316;28;20025;-80
2022/09/01 02:45:50;;;;;;;17.90;11.95;;;21.00;99.90;;;;;;5054097;28;20104;-81
2022/09/01 02:48:17;;;;;;;16.37;10.93;;;21.00;99.90;;;;;;5054622;28;20486;-82
2022/09/01 02:50:43;;;;;;;23.98;11.43;;;20.90;99.90;;;;;;5036729;28;20041;-80
2022/09/01 02:53:10;;;;;;;16.55;10.95;;;20.90;99.90;;;;;;5053538;28;20072;-81
2022/09/01 02:55:41;;;;;;;14.23;10.90;;;20.90;99.90;;;;;;5054404;28;20476;-80
2022/09/01 02:58:15;;;;;;;19.38;10.73;;;20.80;99.90;;;;;;5055000;28;20100;-81
2022/09/01 03:00:43;;;;;;;22.42;11.02;;;20.90;99.90;;;;;;5054361;28;20490;-82
2022/09/01 03:03:11;;;;;;;15.15;11.43;;;20.80;99.90;;;;;;5054086;28;20029;-82
2022/09/01 03:05:38;;;;;;;16.67;11.10;;;20.80;99.90;;;;;;5036864;28;20033;-80
2022/09/01 03:08:09;;;;;;;20.60;13.50;;;20.90;99.90;;;;;;5054564;28;20063;-81
2022/09/01 03:10:40;;;;;;;19.88;11.63;;;20.80;99.90;;;;;;5054753;28;20017;-81
2022/09/01 03:13:13;;;;;;;16.17;11.23;;;20.90;99.90;;;;;;5036454;28;20024;-80
2022/09/01 03:15:39;;;;;;;19.30;11.73;;;20.80;99.90;;;;;;5054406;28;20480;-79
2022/09/01 03:18:07;;;;;;;19.50;11.80;;;20.80;99.90;;;;;;5036701;28;20021;-80
2022/09/01 03:20:35;;;;;;;21.63;11.55;;;20.80;99.90;;;;;;5054466;28;20162;-81
2022/09/01 03:23:03;;;;;;;14.40;11.63;;;20.70;99.90;;;;;;5036137;28;20028;-79
2022/09/01 03:25:30;;;;;;;17.15;11.38;;;20.80;99.90;;;;;;5036234;28;20032;-81
2022/09/01 03:28:01;;;;;;;19.02;12.30;;;20.70;99.90;;;;;;5053638;28;20017;-80
2022/09/01 03:30:32;;;;;;;19.77;12.13;;;20.70;99.90;;;;;;5053650;28;20528;-80
2022/09/01 03:32:59;;;;;;;17.98;12.23;;;20.60;99.90;;;;;;5035205;28;20044;-80
2022/09/01 03:35:27;;;;;;;22.35;11.02;;;20.60;99.90;;;;;;5053482;28;20052;-81
2022/09/01 03:37:57;;;;;;;17.48;11.80;;;20.50;99.90;;;;;;5053350;28;20124;-80
2022/09/01 03:40:26;;;;;;;15.88;11.80;;;20.60;99.90;;;;;;5053826;28;20025;-81
2022/09/01 03:42:54;;;;;;;15.23;10.85;;;20.50;99.90;;;;;;5053693;28;20044;-82
2022/09/01 03:45:20;;;;;;;18.30;11.20;;;20.60;99.90;;;;;;5053584;28;20543;-81
2022/09/01 03:47:47;;;;;;;19.83;10.98;;;20.50;99.90;;;;;;5052851;28;20357;-80
2022/09/01 03:50:21;;;;;;;15.50;10.73;;;20.40;99.90;;;;;;5053260;28;20067;-80
2022/09/01 03:52:57;;;;;;;15.98;10.20;;;20.40;99.90;;;;;;5052964;28;20048;-81
2022/09/01 03:55:29;;;;;;;16.98;11.18;;;20.40;99.90;;;;;;5029365;28;20040;-82
2022/09/01 03:58:05;;;;;;;13.95;9.68;;;20.40;99.90;;;;;;5035594;28;20025;-81
2022/09/01 04:00:42;;;;;;;16.02;10.10;;;20.30;99.90;;;;;;5049283;28;20356;-81
2022/09/01 04:03:11;;;;;;;14.95;10.38;;;20.30;99.90;;;;;;5052444;28;20511;-81
2022/09/01 04:05:41;;;;;;;13.85;11.00;;;20.30;99.90;;;;;;5035276;28;20040;-83
2022/09/01 04:08:10;;;;;;;12.52;9.73;;;20.20;99.90;;;;;;5047117;28;20025;-80
2022/09/01 04:10:49;;;;;;;13.73;9.57;;;20.20;99.90;;;;;;5052714;28;20430;-80
2022/09/01 04:13:30;;;;;;;16.45;11.30;;;20.10;99.90;;;;;;5035071;28;20037;-81
2022/09/01 04:15:57;;;;;;;15.85;10.05;;;20.10;99.90;;;;;;5053003;28;20025;-81
2022/09/01 04:18:24;;;;;;;18.88;11.20;;;20.10;99.90;;;;;;5052899;28;20037;-81
2022/09/01 04:20:53;;;;;;;16.33;11.00;;;20.10;99.90;;;;;;5052601;28;20132;-81
2022/09/01 04:23:32;;;;;;;16.58;10.70;;;20.10;99.90;;;;;;5035172;28;20032;-81
2022/09/01 04:26:08;;;;;;;15.48;11.00;;;20.10;99.90;;;;;;5052920;28;20075;-80
2022/09/01 04:28:37;;;;;;;18.83;10.55;;;20.10;99.90;;;;;;5052886;28;20040;-81
2022/09/01 04:31:08;;;;;;;28.80;10.38;;;20.00;99.90;;;;;;5034638;28;20032;-80
2022/09/01 04:33:38;;;;;;;16.38;10.25;;;20.00;99.90;;;;;;5052842;28;20047;-83
2022/09/01 04:36:06;;;;;;;20.70;9.68;;;20.00;99.90;;;;;;5052690;28;20027;-82
2022/09/01 04:38:35;;;;;;;24.65;9.50;;;20.00;99.90;;;;;;5053342;28;20622;-80
2022/09/01 04:41:05;;;;;;;20.77;9.65;;;20.00;99.90;;;;;;5053147;28;20025;-82
2022/09/01 04:43:32;;;;;;;20.85;9.18;;;20.00;99.90;;;;;;5051845;28;20025;-78
2022/09/01 04:45:59;;;;;;;12.70;9.25;;;20.00;99.90;;;;;;5054200;28;20100;-82
2022/09/01 04:48:25;;;;;;;14.68;8.60;;;20.00;99.90;;;;;;5054476;28;20036;-79
2022/09/01 04:50:52;;;;;;;19.45;8.38;;;20.00;99.90;;;;;;5069008;28;20028;-81
2022/09/01 04:53:18;;;;;;;17.33;8.43;;;20.00;99.90;;;;;;5073759;28;20033;-81
2022/09/01 04:55:45;;;;;;;14.73;8.18;;;20.00;99.90;;;;;;5073313;28;20390;-80
2022/09/01 04:58:16;;;;;;;12.13;9.02;;;20.00;99.90;;;;;;5040097;28;20025;-79
2022/09/01 05:00:47;;;;;;;20.05;8.25;;;20.10;99.90;;;;;;5039753;28;20025;-80
2022/09/01 05:03:13;;;;;;;12.25;8.25;;;20.10;99.90;;;;;;5066742;28;20106;-81
2022/09/01 05:05:44;;;;;;;12.77;8.32;;;20.10;99.90;;;;;;5052742;28;20025;-82
2022/09/01 05:08:13;;;;;;;10.90;7.73;;;20.10;99.90;;;;;;5053848;28;20036;-80
2022/09/01 05:10:46;;;;;;;13.90;8.23;;;20.20;99.90;;;;;;5069750;28;20028;-85
2022/09/01 05:13:16;;;;;;;14.73;8.38;;;20.20;99.90;;;;;;5052562;28;20032;-82
2022/09/01 05:15:47;;;;;;;19.35;9.35;;;20.20;99.90;;;;;;5051041;28;20112;-81
2022/09/01 05:18:22;;;;;;;16.75;8.48;;;20.30;99.90;;;;;;5035143;28;20037;-79
2022/09/01 05:20:51;;;;;;;13.77;6.78;;;20.30;99.90;;;;;;5051898;28;20028;-82
2022/09/01 05:23:18;;;;;;;10.43;6.22;;;20.30;99.90;;;;;;5053345;28;20031;-79
2022/09/01 05:25:47;;;;;;;12.52;6.07;;;20.40;99.90;;;;;;5055255;28;20025;-80
2022/09/01 05:28:16;;;;;;;9.88;5.43;;;20.40;99.90;;;;;;5056825;28;20021;-83
2022/09/01 05:30:42;;;;;;;19.88;5.40;;;20.40;99.90;;;;;;5056277;28;20403;-80
2022/09/01 05:33:11;;;;;;;13.88;5.55;;;20.50;99.90;;;;;;5056384;28;20116;-79
2022/09/01 05:35:42;;;;;;;14.88;6.20;;;20.40;99.90;;;;;;5056571;28;20116;-80
2022/09/01 05:38:11;;;;;;;9.60;5.82;;;20.40;99.90;;;;;;5056264;28;20045;-79
2022/09/01 05:40:42;;;;;;;12.55;6.07;;;20.40;99.90;;;;;;5055782;28;20079;-80
2022/09/01 05:43:13;;;;;;;8.48;5.43;;;20.40;99.90;;;;;;5039011;28;20454;-79
2022/09/01 05:45:43;;;;;;;14.50;8.32;;;20.40;99.90;;;;;;5056499;28;20025;-83
2022/09/01 05:48:14;;;;;;;12.52;6.43;;;20.40;99.90;;;;;;5056293;28;20541;-81
2022/09/01 05:50:45;;;;;;;13.48;6.95;;;20.30;99.90;;;;;;5056263;28;20107;-80
2022/09/01 05:53:16;;;;;;;11.93;6.97;;;20.20;99.90;;;;;;5054925;28;20048;-78
2022/09/01 05:55:47;;;;;;;10.93;6.50;;;20.10;99.90;;;;;;5055007;28;20475;-80
2022/09/01 05:58:15;;;;;;;12.80;7.72;;;20.10;99.90;;;;;;5056498;28;20021;-80
2022/09/01 06:00:48;;;;;;;27.50;17.17;;;20.00;99.90;;;;;;5055914;28;20029;-81
2022/09/01 06:03:16;;;;;;;17.17;9.75;;;19.90;99.90;;;;;;5056435;28;20051;-82
2022/09/01 06:05:47;;;;;;;15.80;8.63;;;19.90;99.90;;;;;;5055704;28;20028;-79
2022/09/01 06:08:17;;;;;;;13.90;7.15;;;19.70;99.90;;;;;;5055603;28;20395;-79
2022/09/01 06:10:44;;;;;;;13.85;7.80;;;19.70;99.90;;;;;;5055904;28;20060;-80
2022/09/01 06:13:10;;;;;;;16.10;7.50;;;19.60;99.90;;;;;;5037898;28;20472;-79
2022/09/01 06:15:37;;;;;;;16.73;7.03;;;19.70;99.90;;;;;;5055719;28;20029;-79
2022/09/01 06:18:10;;;;;;;13.73;6.28;;;19.60;99.90;;;;;;5037863;28;20391;-79
2022/09/01 06:20:39;;;;;;;14.32;6.88;;;19.60;99.90;;;;;;5055759;28;20044;-78
2022/09/01 06:23:06;;;;;;;12.02;6.53;;;19.50;99.90;;;;;;5055488;28;20033;-81
2022/09/01 06:25:35;;;;;;;12.52;6.70;;;19.30;99.90;;;;;;5055539;28;20452;-79
2022/09/01 06:28:03;;;;;;;16.63;6.90;;;19.20;99.90;;;;;;5055639;28;20033;-80
2022/09/01 06:30:29;;;;;;;18.17;6.72;;;19.20;99.90;;;;;;5037620;28;20033;-79
2022/09/01 06:32:55;;;;;;;16.55;5.95;;;19.20;99.90;;;;;;5055358;28;20025;-80
2022/09/01 06:35:28;;;;;;;9.88;5.40;;;19.20;99.90;;;;;;5054910;28;20036;-80
2022/09/01 06:37:57;;;;;;;16.02;6.13;;;19.10;99.90;;;;;;5054855;28;20057;-80
2022/09/01 06:40:24;;;;;;;10.27;5.40;;;19.20;99.90;;;;;;5055536;28;20037;-80
2022/09/01 06:42:51;;;;;;;10.23;5.47;;;19.10;99.90;;;;;;5055122;28;20087;-79
2022/09/01 06:45:23;;;;;;;9.15;5.68;;;19.20;99.90;;;;;;5053946;28;20025;-79
2022/09/01 06:47:52;;;;;;;20.45;5.55;;;19.20;99.90;;;;;;5054970;28;20017;-81
2022/09/01 06:50:20;;;;;;;12.43;5.93;;;19.20;99.90;;;;;;5053683;28;20128;-82
2022/09/01 06:53:02;;;;;;;13.80;5.10;;;19.10;99.90;;;;;;5053616;28;20029;-81
2022/09/01 06:55:30;;;;;;;;;;;19.10;99.90;;;;;;5037792;28;20124;-81
2022/09/01 06:57:57;;;;;;;14.85;5.13;;;19.00;99.90;;;;;;5054958;28;19913;-80
2022/09/01 07:00:25;;;;;;;10.57;5.63;;;19.00;99.90;;;;;;5036904;28;20083;-80
2022/09/01 07:02:56;;;;;;;19.13;5.60;;;19.10;99.90;;;;;;5054962;28;20024;-81
2022/09/01 07:05:23;;;;;;;10.98;4.80;;;19.10;99.90;;;;;;5054455;28;20379;-82
2022/09/01 07:07:54;;;;;;;9.60;4.70;;;19.20;99.90;;;;;;5055031;28;20029;-80
2022/09/01 07:10:27;;;;;;;8.50;4.53;;;19.20;99.90;;;;;;5054987;28;20533;-81
2022/09/01 07:12:55;;;;;;;8.77;4.53;;;19.20;99.90;;;;;;5054986;28;20495;-80
2022/09/01 07:15:21;;;;;;;10.52;4.90;;;19.20;99.90;;;;;;5054425;28;20029;-78
2022/09/01 07:17:57;;;;;;;12.05;5.40;;;19.20;99.90;;;;;;5054548;28;20067;-78
2022/09/01 07:20:27;;;;;;;10.55;5.20;;;19.20;99.90;;;;;;5036704;28;20036;-79
2022/09/01 07:22:55;;;;;;;13.15;5.18;;;19.30;99.90;;;;;;5053995;28;20037;-79
2022/09/01 07:25:22;;;;;;;11.77;4.78;;;19.40;99.90;;;;;;5054079;28;20025;-79
2022/09/01 07:27:49;;;;;;;10.38;4.43;;;19.40;99.90;;;;;;5036260;28;20025;-80
2022/09/01 07:30:19;;;;;;;9.77;4.90;;;19.30;99.90;;;;;;5036574;28;20456;-78
2022/09/01 07:32:47;;;;;;;10.40;4.20;;;19.30;99.90;;;;;;5053764;28;20064;-79
2022/09/01 07:35:14;;;;;;;12.98;4.18;;;19.20;99.90;;;;;;5054461;28;20033;-77
2022/09/01 07:37:40;;;;;;;6.82;3.40;;;19.20;99.90;;;;;;5036135;28;20056;-79
2022/09/01 07:40:09;;;;;;;7.10;3.30;;;19.20;99.90;;;;;;5054106;28;20028;-78
2022/09/01 07:42:37;;;;;;;6.50;3.40;;;19.30;99.90;;;;;;5036228;28;20032;-80
2022/09/01 07:45:08;;;;;;;5.65;2.70;;;19.30;99.90;;;;;;5054285;28;20028;-77
2022/09/01 07:47:36;;;;;;;7.40;3.50;;;19.30;99.90;;;;;;5053769;28;20017;-78
2022/09/01 07:50:07;;;;;;;7.57;3.60;;;19.30;99.90;;;;;;5036132;28;20120;-79
2022/09/01 07:52:42;;;;;;;9.10;3.27;;;19.40;99.90;;;;;;5053609;28;20056;-78
2022/09/01 07:55:13;;;;;;;8.93;3.47;;;19.30;99.90;;;;;;5052729;28;20117;-78
2022/09/01 07:57:44;;;;;;;8.55;3.40;;;19.20;99.90;;;;;;5053204;28;20104;-78
2022/09/01 08:00:14;;;;;;;14.35;3.85;;;19.20;99.90;;;;;;5053533;28;20036;-80
2022/09/01 08:02:43;;;;;;;10.05;3.20;;;19.20;99.90;;;;;;5053509;28;20033;-79
2022/09/01 08:05:14;;;;;;;9.77;3.95;;;19.20;99.90;;;;;;5034913;28;20052;-80
2022/09/01 08:07:40;;;;;;;;;;;19.10;99.90;;;;;;5053615;28;20096;-79
2022/09/01 08:10:07;;;;;;;17.42;3.53;;;19.20;99.90;;;;;;5053253;28;19905;-81
2022/09/01 08:12:33;;;;;;;9.35;3.55;;;19.20;99.90;;;;;;5053043;28;20395;-81
2022/09/01 08:15:01;;;;;;;7.97;3.45;;;19.10;99.90;;;;;;5053479;28;20040;-80
2022/09/01 08:17:27;;;;;;;9.35;4.38;;;19.20;99.90;;;;;;5053564;28;20029;-79
2022/09/01 08:19:53;;;;;;;17.75;3.72;;;19.30;99.90;;;;;;5035720;28;20087;-80
2022/09/01 08:22:24;;;;;;;10.15;3.83;;;19.30;99.90;;;;;;5034583;28;20036;-80
2022/09/01 08:24:50;;;;;;;20.17;3.80;;;19.40;99.90;;;;;;5052745;28;20021;-80
2022/09/01 08:27:16;;;;;;;10.23;3.42;;;19.50;99.90;;;;;;5035592;28;20116;-79
2022/09/01 08:29:42;;;;;;;10.95;3.90;;;19.60;99.90;;;;;;5053572;28;20221;-78
2022/09/01 08:32:10;;;;;;;10.77;3.05;;;19.60;99.90;;;;;;5035597;28;20464;-80
2022/09/01 08:34:36;;;;;;;7.70;3.95;;;19.70;99.90;;;;;;5053052;28;20029;-81
2022/09/01 08:37:04;;;;;;;11.98;3.92;;;19.80;99.90;;;;;;5053610;28;20029;-80
2022/09/01 08:39:30;;;;;;;11.27;3.70;;;19.90;99.90;;;;;;5053084;28;20099;-81
2022/09/01 08:41:55;;;;;;;6.50;3.28;;;19.90;99.90;;;;;;5035511;28;20036;-80
2022/09/01 08:44:43;;;;;;;8.77;3.40;;;20.00;99.90;;;;;;5053531;28;20096;-80
2022/09/01 08:47:12;;;;;;;11.80;3.25;;;20.10;99.90;;;;;;5053470;28;20053;-79
2022/09/01 08:49:39;;;;;;;6.32;3.40;;;20.10;99.90;;;;;;5052896;28;20017;-79
2022/09/01 08:52:23;;;;;;;9.68;3.42;;;20.20;99.90;;;;;;5035322;28;20460;-81
2022/09/01 08:55:00;;;;;;;9.18;3.38;;;20.20;99.90;;;;;;5034519;28;20033;-80
2022/09/01 08:57:36;;;;;;;6.70;3.10;;;20.30;99.90;;;;;;5053076;28;20492;-82
2022/09/01 09:00:09;;;;;;;11.65;3.60;;;20.30;99.90;;;;;;5037228;28;20025;-80
2022/09/01 09:03:29;;;;;;;7.00;3.03;;;20.30;99.90;;;;;;5057058;28;20456;-80
2022/09/01 09:06:16;;;;;;;10.40;3.78;;;20.30;99.90;;;;;;4940349;29;20027;-79
2022/09/01 09:08:50;;;;;;;9.30;3.92;;;20.40;99.90;;;;;;4940553;29;20024;-80
2022/09/01 09:11:45;;;;;;;10.82;4.28;;;20.50;99.90;;;;;;4956426;29;20031;-83
2022/09/01 09:14:26;;;;;;;7.53;3.55;;;20.50;99.90;;;;;;4956647;29;20504;-80
2022/09/01 09:16:55;;;;;;;9.95;4.50;;;20.60;99.90;;;;;;4956474;29;20398;-79
2022/09/01 09:19:44;;;;;;;8.95;4.60;;;20.60;99.90;;;;;;4956597;29;20077;-80
2022/09/01 09:22:13;;;;;;;14.00;4.40;;;20.70;99.90;;;;;;4940173;29;20130;-80
2022/09/01 09:24:59;;;;;;;11.13;4.35;;;20.70;99.90;;;;;;4956258;29;20434;-80
2022/09/01 09:27:33;;;;;;;11.10;4.43;;;20.70;99.90;;;;;;4940201;29;20534;-80
2022/09/01 09:30:12;;;;;;;8.90;5.00;;;20.70;99.90;;;;;;4956644;29;20063;-80
2022/09/01 09:33:04;;;;;;;12.73;4.18;;;20.70;99.90;;;;;;4956191;29;20043;-80
2022/09/01 09:35:32;;;;;;;9.32;4.03;;;20.70;99.90;;;;;;4956038;29;20035;-80
2022/09/01 09:38:17;;;;;;;11.43;4.88;;;20.70;99.90;;;;;;4949810;29;20066;-81
2022/09/01 09:41:05;;;;;;;11.15;4.55;;;20.70;99.90;;;;;;5032407;28;20037;-80
2022/09/01 09:43:57;;;;;;;10.23;5.53;;;20.70;99.90;;;;;;5016809;28;20544;-80
2022/09/01 09:46:36;;;;;;;7.72;4.70;;;20.60;99.90;;;;;;5036259;28;20104;-81
2022/09/01 09:49:25;;;;;;;8.90;5.18;;;20.70;99.90;;;;;;5018329;28;20097;-82
2022/09/01 09:52:13;;;;;;;10.25;4.93;;;20.70;99.90;;;;;;5036291;28;20033;-80
2022/09/01 09:55:02;;;;;;;11.15;5.40;;;20.70;99.90;;;;;;5036187;28;20380;-80
2022/09/01 09:57:30;;;;;;;12.38;5.45;;;20.70;99.90;;;;;;5036718;28;20066;-80
2022/09/01 10:00:14;;;;;;;9.98;4.90;;;20.70;99.90;;;;;;5035016;28;20025;-81
2022/09/01 10:02:43;;;;;;;10.27;4.68;;;20.60;99.90;;;;;;5035273;28;20547;-79
2022/09/01 10:05:36;;;;;;;10.63;4.53;;;20.70;99.90;;;;;;5018246;28;20036;-83
2022/09/01 10:08:04;;;;;;;12.85;5.45;;;20.80;99.90;;;;;;5018681;28;20079;-81
2022/09/01 10:10:37;;;;;;;13.00;4.80;;;20.70;99.90;;;;;;5035754;28;20039;-80
2022/09/01 10:13:05;;;;;;;9.23;5.75;;;20.70;99.90;;;;;;5035986;28;20072;-79
2022/09/01 10:15:33;;;;;;;11.00;5.70;;;20.70;99.90;;;;;;5035951;28;20034;-80
2022/09/01 10:18:13;;;;;;;12.05;5.55;;;20.60;99.90;;;;;;5018061;28;20025;-79
2022/09/01 10:20:55;;;;;;;15.13;7.93;;;20.50;99.90;;;;;;5035922;28;20033;-81
2022/09/01 10:23:23;;;;;;;18.20;6.85;;;20.50;99.90;;;;;;5035535;28;20030;-80
2022/09/01 10:25:52;;;;;;;14.43;9.48;;;20.50;99.90;;;;;;5035726;28;20021;-79
2022/09/01 10:28:23;;;;;;;14.68;5.80;;;20.50;99.90;;;;;;5035477;28;20026;-81
2022/09/01 10:30:52;;;;;;;13.98;5.13;;;20.50;99.90;;;;;;5035974;28;20149;-80
2022/09/01 10:33:20;;;;;;;12.27;6.00;;;20.40;99.90;;;;;;5034983;28;20033;-79
2022/09/01 10:35:49;;;;;;;8.77;5.88;;;20.50;99.90;;;;;;5035606;28;20032;-82
2022/09/01 10:38:23;;;;;;;11.80;7.00;;;20.40;99.90;;;;;;5026186;28;20091;-82
2022/09/01 10:41:05;;;;;;;11.02;6.32;;;20.50;99.90;;;;;;5055519;28;20024;-79
2022/09/01 10:43:43;;;;;;;25.15;14.15;;;20.60;99.90;;;;;;5055515;28;20040;-80
2022/09/01 10:46:32;;;;;;;17.52;9.32;;;20.50;99.90;;;;;;5055542;28;20415;-80
2022/09/01 10:48:58;;;;;;;12.38;8.00;;;20.40;99.90;;;;;;5037172;28;20112;-82
2022/09/01 10:51:39;;;;;;;15.00;7.70;;;20.40;99.90;;;;;;5054534;28;20104;-81
2022/09/01 10:54:05;;;;;;;17.67;9.45;;;20.50;99.90;;;;;;5037312;28;20033;-81
2022/09/01 10:56:46;;;;;;;11.57;7.20;;;20.60;99.90;;;;;;5036850;28;20119;-81
2022/09/01 10:59:21;;;;;;;22.30;8.95;;;20.70;99.90;;;;;;5037057;28;20419;-80
2022/09/01 11:01:49;;;;;;;14.30;7.95;;;20.70;99.90;;;;;;5036995;28;20044;-80
2022/09/01 11:04:18;;;;;;;15.35;8.20;;;20.50;99.90;;;;;;5054715;28;20435;-80
2022/09/01 11:06:50;;;;;;;20.20;9.02;;;20.40;99.90;;;;;;5054695;28;20033;-80
2022/09/01 11:09:23;;;;;;;;;;;20.50;99.90;;;;;;5055243;28;20029;-80
2022/09/01 11:12:23;;;;;;;16.92;6.88;;;20.50;99.90;;;;;;5053236;28;19916;-80
2022/09/01 11:14:55;;;;;;;19.40;13.10;;;20.50;99.90;;;;;;5054466;28;20082;-80
2022/09/01 11:17:36;;;;;;;13.65;7.03;;;20.60;99.90;;;;;;5036973;28;20032;-82
2022/09/01 11:20:39;;;;;;;17.35;10.27;;;20.60;99.90;;;;;;5054220;28;20083;-80
2022/09/01 11:23:11;;;;;;;24.75;13.48;;;20.70;99.90;;;;;;4953596;28;20035;-81
2022/09/01 11:25:47;;;;;;;27.73;16.08;;;20.60;99.90;;;;;;4954289;29;20079;-81
2022/09/01 11:28:18;;;;;;;26.00;12.82;;;20.60;99.90;;;;;;4954299;29;20035;-78
2022/09/01 11:30:55;;;;;;;16.03;9.10;;;20.60;99.90;;;;;;4954060;29;20042;-79
2022/09/01 11:33:46;;;;;;;13.20;8.88;;;20.60;99.90;;;;;;4953865;29;20088;-80
2022/09/01 11:36:20;;;;;;;13.77;7.57;;;20.60;99.90;;;;;;4953771;29;20028;-80
2022/09/01 11:38:50;;;;;;;11.23;6.57;;;20.60;99.90;;;;;;4953573;29;20138;-79
2022/09/01 11:41:32;;;;;;;14.63;7.47;;;20.60;99.90;;;;;;4937268;29;20512;-78
2022/09/01 11:43:59;;;;;;;13.77;6.45;;;20.50;99.90;;;;;;4953972;29;20027;-79
2022/09/01 11:46:31;;;;;;;14.48;6.43;;;20.60;99.90;;;;;;4937507;29;20423;-81
2022/09/01 11:49:02;;;;;;;13.77;5.55;;;20.60;99.90;;;;;;4953518;29;20023;-80
2022/09/01 11:51:46;;;;;;;9.65;5.63;;;20.70;99.90;;;;;;4973033;28;20035;-79
2022/09/01 11:54:13;;;;;;;7.93;5.95;;;20.60;99.90;;;;;;4972924;28;20067;-81
2022/09/01 11:56:39;;;;;;;12.63;5.82;;;20.60;99.90;;;;;;4973264;28;20031;-79
2022/09/01 11:59:04;;;;;;;9.95;6.35;;;20.60;99.90;;;;;;4998906;28;20034;-81
2022/09/01 12:01:39;;;;;;;12.05;6.63;;;20.50;99.90;;;;;;5033847;28;20460;-80
2022/09/01 12:04:26;;;;;;;12.68;6.47;;;20.50;99.90;;;;;;5034210;28;20037;-81
2022/09/01 12:07:13;;;;;;;9.98;6.05;;;20.40;99.90;;;;;;5033948;28;20022;-80
2022/09/01 12:09:43;;;;;;;12.50;5.97;;;20.30;99.90;;;;;;5015787;28;20037;-80
2022/09/01 12:12:35;;;;;;;13.80;6.75;;;20.30;99.90;;;;;;5033694;28;20037;-80
2022/09/01 12:15:07;;;;;;;13.48;6.75;;;20.20;99.90;;;;;;5025739;28;20107;-80
2022/09/01 12:17:34;;;;;;;8.55;5.78;;;20.20;99.90;;;;;;5016191;28;20476;-80
2022/09/01 12:20:27;;;;;;;13.30;5.70;;;20.10;99.90;;;;;;5015990;28;20117;-80
2022/09/01 12:22:54;;;;;;;11.82;6.15;;;20.10;99.90;;;;;;5033495;28;20036;-80
2022/09/01 12:25:29;;;;;;;14.13;5.90;;;20.00;99.90;;;;;;5015781;28;20029;-81
2022/09/01 12:27:56;;;;;;;10.90;6.00;;;19.90;99.90;;;;;;5015891;28;20423;-80
2022/09/01 12:30:22;;;;;;;10.85;6.32;;;19.80;99.90;;;;;;5033468;28;20033;-81
2022/09/01 12:32:48;;;;;;;14.13;6.50;;;19.80;99.90;;;;;;5033415;28;20021;-81
2022/09/01 12:35:22;;;;;;;15.05;6.32;;;19.80;99.90;;;;;;5035552;28;20110;-82
2022/09/01 12:37:49;;;;;;;14.93;6.65;;;19.80;99.90;;;;;;5024310;28;20080;-79
2022/09/01 12:40:32;;;;;;;14.68;6.30;;;19.80;99.90;;;;;;5039937;28;20561;-80
2022/09/01 12:42:58;;;;;;;10.20;6.20;;;19.80;99.90;;;;;;5057370;28;20021;-81
2022/09/01 12:45:45;;;;;;;9.10;5.93;;;19.80;99.90;;;;;;5057607;28;20159;-80
2022/09/01 12:48:43;;;;;;;10.75;6.20;;;19.70;99.90;;;;;;5057508;28;20031;-79
2022/09/01 12:51:22;;;;;;;17.80;8.40;;;19.50;99.90;;;;;;4956896;29;20478;-80
2022/09/01 12:53:54;;;;;;;13.05;9.65;;;19.50;99.90;;;;;;4940740;29;20106;-80
2022/09/01 12:56:29;;;;;;;6.70;5.60;;;19.40;99.90;;;;;;4957029;29;20036;-79
2022/09/01 12:59:06;;;;;;;9.25;5.72;;;19.40;99.90;;;;;;4956796;29;20043;-79
2022/09/01 13:01:34;;;;;;;11.38;6.57;;;19.50;99.90;;;;;;4940708;29;20031;-82